NCAR-RAP Real-Time Weather Data

Output produced by METARs form (21 May 2019  11:21 UTC)
found at http://weather.rap.ucar.edu/surface/
 
RJSR 211000Z 20005KT 9999 FEW015 SCT020 BKN/// 14/14 Q1004
RJSR 210900Z 22008KT 190V250 9999 FEW015 SCT020 BKN/// 15/15 Q1003
RJSR 210800Z 21010KT 170V250 9999 FEW015 SCT020 BKN100 17/17 Q1003
RJSR 210700Z 21008KT 9999 FEW010 SCT030 BKN100 16/16 Q1003
RJSR 210600Z 22007KT 180V250 9999 FEW008 SCT040 BKN090 16/16 Q1003
RJSR 210500Z 27013KT 9999 FEW003 SCT010 BKN015 15/15 Q1002
RJSR 210400Z 21008KT 160V240 6000 R11/1400VP2000D -SHRA FEW003 SCT010 BKN020 18/18 Q1001
RJSR 210300Z 20007KT 150V230 9999 -SHRA FEW005 SCT012 BKN050 19/19 Q1001
RJSR 210200Z 21003KT 150V280 9999 -SHRA FEW003 SCT010 BKN040 18/18 Q1001
RJSR 210121Z 12006KT 5000 -SHRA BR FEW001 SCT003 BKN025 17/17 Q1001 RMK 1ST001 3ST003 5CU025 A2958
RJSR 210100Z VRB02KT 1600 R11/1700U SHRA BCFG BR FEW001 SCT003 BKN008 17/17 Q1002
RJSR 210000Z 05003KT 020V090 2000 R11/2000U SHRA BCFG BR FEW001 SCT003 BKN008 16/16 Q1001
RJSR 202327Z 04004KT 1400 R11/1100V1800D SHRA BCFG BR FEW001 SCT003 BKN008 16/16 Q1001 RMK 2ST001 4ST003 6ST008 A2959
RJSR 202300Z 02004KT 1800 R11/2000N SHRA BCFG BR FEW001 SCT003 BKN008 16/16 Q1002
RJSR 201000Z 16013G25KT 100V220 9999 FEW040 BKN/// 21/11 Q1007
RJSR 200900Z 15012KT 120V190 9999 FEW040 BKN/// 22/10 Q1008
RJSR 200800Z 15013KT 9999 FEW040 BKN/// 23/10 Q1007
RJSR 200700Z 13016KT 9999 FEW040 BKN/// 25/10 Q1008
RJSR 200600Z 15013KT 120V180 9999 FEW040 BKN/// 26/10 Q1008
RJSR 200500Z 15014KT 9999 FEW040 BKN/// 27/10 Q1008
RJSR 200400Z 16010KT 110V210 9999 FEW040 BKN/// 26/11 Q1009
RJSR 200300Z 17013KT 140V210 9999 FEW040 BKN/// 26/11 Q1010
RJSR 200200Z 16012KT 110V190 9999 FEW040 BKN/// 25/10 Q1011
RJSR 200100Z 17013KT 9999 FEW040 BKN/// 24/10 Q1011
RJSR 200000Z 17014G26KT 130V200 9999 FEW040 SCT/// 23/10 Q1012
RJSR 192300Z 15013KT 120V200 9999 FEW030 SCT/// 22/10 Q1013
RJSR 191000Z 17005KT CAVOK 21/09 Q1017
RJSR 190900Z 19005KT 160V220 9999 FEW040 23/09 Q1017
RJSR 190800Z 21007KT 180V250 9999 FEW040 26/09 Q1016
RJSR 190700Z VRB05KT 9999 FEW040 27/10 Q1016
RJSR 190600Z VRB06KT 9999 FEW050 28/09 Q1017
RJSR 190500Z VRB03KT 9999 FEW050 28/09 Q1017
RJSR 190400Z VRB04KT 9999 FEW050 26/10 Q1018
RJSR 190300Z VRB03KT 9999 FEW050 SCT060 26/10 Q1019
RJSR 190200Z 10004KT 070V180 9999 FEW040 SCT050 26/11 Q1019
RJSR 190100Z VRB02KT 9999 FEW040 SCT/// 24/12 Q1020
RJSR 190000Z 11003KT 030V200 9999 FEW040 SCT/// 21/12 Q1021